AirNav   Phillips 66 Aviation Fuel
 
 509 users online  

68G Duford Field Airport
Genesee, Michigan, USA

GOING TO GENESEE?


FAA INFORMATION EFFECTIVE 14 SEPTEMBER 2017

Location

FAA Identifier: 68G
Lat/Long: 43-07-30.0940N / 083-37-34.8410W
43-07.501567N / 083-37.580683W
43.1250261 / -83.6263447
(estimated)
Elevation: 773 ft. / 235.6 m (surveyed)
Variation: 06W (1985)
From city: 1 mile NW of GENESEE, MI
Time zone: UTC -4 (UTC -5 during Standard Time)
Zip code: 48458

Airport Operations

Airport use: CLOSED PERMANENTLY
Activation date: 05/1973
Control tower: no
ARTCC: CLEVELAND CENTER
FSS: LANSING FLIGHT SERVICE STATION
NOTAMs facility: LAN (NOTAM-D service available)
Attendance: IREG
Wind indicator: yes
Segmented circle: no

Airport Communications

CTAF: 122.9
WX ASOS at FNT (11 nm SW): PHONE 810-342-7804
WX AWOS-3P at D95 (16 nm E): 134.050 (810-664-5038)

Nearby radio navigation aids

VOR radial/distance  VOR name  Freq  Var
FNTr035/10.9FLINT VORTAC116.9006W
PSIr354/25.8PONTIAC VORTAC111.0003W
MBSr144/31.3SAGINAW VOR/DME112.9003W

 
NDB name  Hdg/Dist  Freq  Var  ID
PETLI057/14.926906WFN ..-. -.

Airport Services

Parking: tiedowns
Airframe service: NONE
Powerplant service: NONE
Bottled oxygen: NONE
Bulk oxygen: NONE

Runway Information

Runway 18/36

Dimensions: 3068 x 100 ft. / 935 x 30 m
Surface: turf, in poor condition
RY 18/36 SURFACE ROUGH WITH IREG MOWING
Runway edge markings: 18/36 MKD WITH 3 FT YELLOW CONES.
RUNWAY 18  RUNWAY 36
Latitude: 43-07.791667N43-07.286667N
Longitude: 083-37.620000W083-37.603333W
Traffic pattern: leftleft
Displaced threshold: 200 ft.1020 ft.
Obstructions: 97 ft. trees, 2618 ft. from runway, 26:1 slope to clear50 ft. tree, 60 ft. left of centerline
RWY 36 APCH RATIO 0:1 AT DSPLCD THLD DUE TO +30 FT TREE 0 FT FROM THLD AND 70 FT L/R.

Airport Ownership and Management from official FAA records

Ownership: Privately-owned
Owner: NORMAN DUFORD
4287 E. MT MORRIS RD
MOUNT MORRIS, MI 48458
Phone 810-686-3190
RES PHONE 810-640-1453. OWNER RESIDES AT ARPT.
Manager: NORMAN DUFORD
4287 E. MT MORRIS RD
MOUNT MORRIS, MI 48458
Phone 810-686-3190

Airport Operational Statistics

Aircraft based on the field: 3
Single engine airplanes: 3
    
Aircraft operations: 100/year *
50% transient general aviation
50% local general aviation
* for 12-month period ending 31 December 2009

Additional Remarks

SCT +10-45 FT TREES IN PRIM SFC.
CROPS N OF RY 18/36 CAN GROW TO +8 FT DURING GROWING SEASON.
(ARPT STATUS) ARPT CLSD PERMLY.

Instrument Procedures

There are no published instrument procedures at 68G.

Some nearby airports with instrument procedures:

6G0 - Athelone Williams Memorial Airport (7 nm SE)
KFNT - Bishop International Airport (11 nm SW)
D95 - Dupont-Lapeer Airport (16 nm E)
9G2 - Price's Airport (20 nm S)
KHYX - Saginaw County H W Browne Airport (21 nm NW)
 
Loc | Ops | Rwys | IFR | FBO | Links
Com | Nav | Svcs | Stats | Notes


 
Area around 68G (Duford Field Airport)
 
Road maps at: MapQuest Bing Google
 
Aerial photo
No photo
 
Sectional chart

 
Airport distance calculator
Flying to Duford Field Airport? Find the distance to fly.

From to 68G

Sunrise and sunset
Times for 25-Sep-2017
 Local
(UTC-4)
 Zulu
(UTC)
Morning civil twilight06:5810:58
Sunrise07:2611:26
Sunset19:2623:26
Evening civil twilight19:5523:55

Current date and time
Zulu (UTC)  25-Sep-2017 04:18:27
Local (UTC-4)  25-Sep-2017 00:18:27
 
METAR
KFNT 
11nm SW 
250353Z AUTO 16004KT 10SM CLR 21/17 A3008 RMK AO2 SLP181 T02110172
KD95 
16nm E 
250353Z AUTO 00000KT 7SM CLR 17/16 A3010 RMK AO2 T01710163
KHYX 
21nm NW 
250353Z AUTO 16003KT 10SM CLR 21/17 A3007 RMK AO2
KCFS 
22nm N 
250355Z AUTO 00000KT 10SM CLR 18/16 A3008 RMK AO2 T01770160
TAF
KFNT 
11nm SW 
241722Z 2418/2518 16005KT P6SM SKC FM251400 18004KT P6SM SCT045
NOTAMs
Click for the latest NOTAMs
NOTAMs are issued by the DoD/FAA and will open in a separate window not controlled by AirNav.

 

 
 

Would you like to see your business listed on this page?

 If your business provides an interesting product or service to pilots, flight crews, aircraft, or users of the Duford Field Airport, you should consider listing it here.  To start the listing process, click on the button below
 
Add a business
 

Other Pages about Duford Field Airport

Page from the Michigan Airport Directory (PDF)
 
Update a link
 
Copyright © AirNav, LLC. All rights reserved. Privacy Policy  Contact